Briefing drone pour Beaurieux

Rechercher une autre localisation

Conditions de vol :


Nous sommes le : Mardi 16 août 2022
Il est 00:47 UTC (02:47 LT)

Lever de soleil : 04:11 UTC (06:11 LT)
Coucher de soleil : 19:26 UTC (21:26 LT)

Météo

L'essentiel des conditions de vol

VIGILANCE MÉTÉO FRANCE - Aisne (02)
Vigilance Jaune : Orages
CARTE TEMSI
CARTES DES FRONTS
METAR de LFQA
LFQA 160030Z AUTO 09004KT CAVOK 15/14 Q1008

Date d'émission: 16/08/2022
Heure d'émission: 00:30 UTC
Vent: 090° pour 4 KT (7 km/h)
Visibilité horizontale: > 10 km
Plafond : Plafond et visibilité OK (CAVOK)
Température: 15 °C
Point de rosée: 14 °C
Humidité: 94%
Pression (QNH): 1008 hPa
Prévision 24h pour Reims (17 km)
Vent : 81° pour 1 KT (2 km/h)
Temperature Maxi: 21 °C
Temperature Min: 21 °C
Humidité : 54%
Condition : Couvert



Warning: count(): Parameter must be an array or an object that implements Countable in /homepages/6/d509196549/htdocs/droneoxygene/briefing.php on line 743
WEBCAM POUR BEAURIEUX

Réglementation

Voler en sécurité

CARTES AERONAUTIQUE 1/500.000
CARTE AZBA (Reseau basse altitude)
CARTES VAC (LFQA)
SUP AIP




Chargement des AIP...
NOTAM (BEAURIEUX + Terrain à proximité / FIR )




Chargement des NOTAMS...
CONTACT PREFECTURE 02


Avertissement : Les données mises à disposition sont indicatives. Oxygène Drone ne pourra être tenu responsable de dégâts causés aux biens et aux personnes.